sensor_id;sensor_type;location;lat;lon;timestamp;temperature;humidity
58517;DHT22;44308;50.810;0.284;2023-02-20T00:00:51;9.20;99.90
58517;DHT22;44308;50.810;0.284;2023-02-20T00:03:17;9.20;99.90
58517;DHT22;44308;50.810;0.284;2023-02-20T00:05:43;9.20;99.90
58517;DHT22;44308;50.810;0.284;2023-02-20T00:08:09;9.20;99.90
58517;DHT22;44308;50.810;0.284;2023-02-20T00:10:34;9.20;99.90
58517;DHT22;44308;50.810;0.284;2023-02-20T00:13:00;9.10;99.90
58517;DHT22;44308;50.810;0.284;2023-02-20T00:15:26;9.10;99.90
58517;DHT22;44308;50.810;0.284;2023-02-20T00:17:51;9.10;99.90
58517;DHT22;44308;50.810;0.284;2023-02-20T00:20:22;9.10;99.90
58517;DHT22;44308;50.810;0.284;2023-02-20T00:22:49;9.00;99.90
58517;DHT22;44308;50.810;0.284;2023-02-20T00:25:16;9.00;99.90
58517;DHT22;44308;50.810;0.284;2023-02-20T00:27:43;9.00;99.90
58517;DHT22;44308;50.810;0.284;2023-02-20T00:30:19;9.00;99.90
58517;DHT22;44308;50.810;0.284;2023-02-20T00:32:46;9.00;99.90
58517;DHT22;44308;50.810;0.284;2023-02-20T00:35:12;9.00;99.90
58517;DHT22;44308;50.810;0.284;2023-02-20T00:37:38;9.00;99.90
58517;DHT22;44308;50.810;0.284;2023-02-20T00:40:04;9.00;99.90
58517;DHT22;44308;50.810;0.284;2023-02-20T00:42:30;9.00;99.90
58517;DHT22;44308;50.810;0.284;2023-02-20T00:44:56;8.90;99.90
58517;DHT22;44308;50.810;0.284;2023-02-20T00:47:21;8.90;99.90
58517;DHT22;44308;50.810;0.284;2023-02-20T00:49:47;9.00;99.90
58517;DHT22;44308;50.810;0.284;2023-02-20T00:52:13;9.00;99.90
58517;DHT22;44308;50.810;0.284;2023-02-20T00:54:39;9.00;99.90
58517;DHT22;44308;50.810;0.284;2023-02-20T00:57:04;8.90;99.90
58517;DHT22;44308;50.810;0.284;2023-02-20T00:59:30;9.00;99.90
58517;DHT22;44308;50.810;0.284;2023-02-20T01:01:56;9.00;99.90
58517;DHT22;44308;50.810;0.284;2023-02-20T01:04:21;9.00;99.90
58517;DHT22;44308;50.810;0.284;2023-02-20T01:06:47;9.00;99.90
58517;DHT22;44308;50.810;0.284;2023-02-20T01:09:13;8.90;99.90
58517;DHT22;44308;50.810;0.284;2023-02-20T01:11:41;9.00;99.90
58517;DHT22;44308;50.810;0.284;2023-02-20T01:14:07;9.00;99.90
58517;DHT22;44308;50.810;0.284;2023-02-20T01:16:33;9.00;99.90
58517;DHT22;44308;50.810;0.284;2023-02-20T01:18:59;9.00;99.90
58517;DHT22;44308;50.810;0.284;2023-02-20T01:21:24;9.00;99.90
58517;DHT22;44308;50.810;0.284;2023-02-20T01:23:50;9.00;99.90
58517;DHT22;44308;50.810;0.284;2023-02-20T01:26:16;9.00;99.90
58517;DHT22;44308;50.810;0.284;2023-02-20T01:28:45;9.00;99.90
58517;DHT22;44308;50.810;0.284;2023-02-20T01:31:13;8.90;99.90
58517;DHT22;44308;50.810;0.284;2023-02-20T01:33:40;9.00;99.90
58517;DHT22;44308;50.810;0.284;2023-02-20T01:36:07;9.00;99.90
58517;DHT22;44308;50.810;0.284;2023-02-20T01:38:33;9.00;99.90
58517;DHT22;44308;50.810;0.284;2023-02-20T01:40:59;9.00;99.90
58517;DHT22;44308;50.810;0.284;2023-02-20T01:43:24;9.00;99.90
58517;DHT22;44308;50.810;0.284;2023-02-20T01:45:50;9.00;99.90
58517;DHT22;44308;50.810;0.284;2023-02-20T01:48:21;9.00;99.90
58517;DHT22;44308;50.810;0.284;2023-02-20T01:50:51;9.00;99.90
58517;DHT22;44308;50.810;0.284;2023-02-20T01:53:20;9.00;99.90
58517;DHT22;44308;50.810;0.284;2023-02-20T01:55:58;9.00;99.90
58517;DHT22;44308;50.810;0.284;2023-02-20T01:58:28;9.00;99.90
58517;DHT22;44308;50.810;0.284;2023-02-20T02:00:55;9.00;99.90
58517;DHT22;44308;50.810;0.284;2023-02-20T02:03:24;9.00;99.90
58517;DHT22;44308;50.810;0.284;2023-02-20T02:06:01;9.00;99.90
58517;DHT22;44308;50.810;0.284;2023-02-20T02:08:28;9.00;99.90
58517;DHT22;44308;50.810;0.284;2023-02-20T02:11:17;9.00;99.90
58517;DHT22;44308;50.810;0.284;2023-02-20T02:13:43;9.00;99.90
58517;DHT22;44308;50.810;0.284;2023-02-20T02:25:17;9.00;99.90
58517;DHT22;44308;50.810;0.284;2023-02-20T02:36:46;9.00;99.90
58517;DHT22;44308;50.810;0.284;2023-02-20T02:39:43;9.00;99.90
58517;DHT22;44308;50.810;0.284;2023-02-20T02:44:50;9.00;99.90
58517;DHT22;44308;50.810;0.284;2023-02-20T02:47:27;8.90;99.90
58517;DHT22;44308;50.810;0.284;2023-02-20T02:50:11;8.70;99.90
58517;DHT22;44308;50.810;0.284;2023-02-20T02:52:37;8.70;99.90
58517;DHT22;44308;50.810;0.284;2023-02-20T02:55:25;8.60;99.90
58517;DHT22;44308;50.810;0.284;2023-02-20T02:57:51;8.60;99.90
58517;DHT22;44308;50.810;0.284;2023-02-20T03:00:25;8.60;99.90
58517;DHT22;44308;50.810;0.284;2023-02-20T03:05:44;8.60;99.90
58517;DHT22;44308;50.810;0.284;2023-02-20T03:08:41;8.60;99.90
58517;DHT22;44308;50.810;0.284;2023-02-20T03:11:17;8.60;99.90
58517;DHT22;44308;50.810;0.284;2023-02-20T03:13:45;8.60;99.90
58517;DHT22;44308;50.810;0.284;2023-02-20T03:19:22;8.60;99.90
58517;DHT22;44308;50.810;0.284;2023-02-20T03:21:50;8.70;99.90
58517;DHT22;44308;50.810;0.284;2023-02-20T03:24:18;8.70;99.90
58517;DHT22;44308;50.810;0.284;2023-02-20T03:26:45;8.70;99.90
58517;DHT22;44308;50.810;0.284;2023-02-20T03:29:29;8.80;99.90
58517;DHT22;44308;50.810;0.284;2023-02-20T03:32:00;8.70;99.90
58517;DHT22;44308;50.810;0.284;2023-02-20T03:34:46;8.70;99.90
58517;DHT22;44308;50.810;0.284;2023-02-20T03:37:33;8.80;99.90
58517;DHT22;44308;50.810;0.284;2023-02-20T03:40:20;8.80;99.90
58517;DHT22;44308;50.810;0.284;2023-02-20T03:43:10;8.80;99.90
58517;DHT22;44308;50.810;0.284;2023-02-20T03:45:47;8.80;99.90
58517;DHT22;44308;50.810;0.284;2023-02-20T03:48:21;8.80;99.90
58517;DHT22;44308;50.810;0.284;2023-02-20T03:50:49;8.80;99.90
58517;DHT22;44308;50.810;0.284;2023-02-20T03:53:33;8.80;99.90
58517;DHT22;44308;50.810;0.284;2023-02-20T03:56:02;8.80;99.90
58517;DHT22;44308;50.810;0.284;2023-02-20T03:58:32;8.80;99.90
58517;DHT22;44308;50.810;0.284;2023-02-20T04:01:05;8.80;99.90
58517;DHT22;44308;50.810;0.284;2023-02-20T04:03:37;8.80;99.90
58517;DHT22;44308;50.810;0.284;2023-02-20T04:06:07;8.80;99.90
58517;DHT22;44308;50.810;0.284;2023-02-20T04:11:16;8.80;99.90
58517;DHT22;44308;50.810;0.284;2023-02-20T04:13:43;8.70;99.90
58517;DHT22;44308;50.810;0.284;2023-02-20T04:16:11;8.70;99.90
58517;DHT22;44308;50.810;0.284;2023-02-20T04:18:37;8.70;99.90
58517;DHT22;44308;50.810;0.284;2023-02-20T04:21:09;8.70;99.90
58517;DHT22;44308;50.810;0.284;2023-02-20T04:23:39;8.70;99.90
58517;DHT22;44308;50.810;0.284;2023-02-20T04:26:10;8.70;99.90
58517;DHT22;44308;50.810;0.284;2023-02-20T04:28:37;8.70;99.90
58517;DHT22;44308;50.810;0.284;2023-02-20T04:31:03;8.70;99.90
58517;DHT22;44308;50.810;0.284;2023-02-20T04:33:29;8.70;99.90
58517;DHT22;44308;50.810;0.284;2023-02-20T04:35:55;8.70;99.90
58517;DHT22;44308;50.810;0.284;2023-02-20T04:38:23;8.70;99.90
58517;DHT22;44308;50.810;0.284;2023-02-20T04:40:49;8.70;99.90
58517;DHT22;44308;50.810;0.284;2023-02-20T04:43:18;8.70;99.90
58517;DHT22;44308;50.810;0.284;2023-02-20T04:45:44;8.70;99.90
58517;DHT22;44308;50.810;0.284;2023-02-20T04:48:09;8.70;99.90
58517;DHT22;44308;50.810;0.284;2023-02-20T04:50:35;8.80;99.90
58517;DHT22;44308;50.810;0.284;2023-02-20T04:53:01;8.80;99.90
58517;DHT22;44308;50.810;0.284;2023-02-20T04:55:27;8.70;99.90
58517;DHT22;44308;50.810;0.284;2023-02-20T04:57:53;8.70;99.90
58517;DHT22;44308;50.810;0.284;2023-02-20T05:00:21;8.70;99.90
58517;DHT22;44308;50.810;0.284;2023-02-20T05:02:47;8.70;99.90
58517;DHT22;44308;50.810;0.284;2023-02-20T05:05:25;8.80;99.90
58517;DHT22;44308;50.810;0.284;2023-02-20T05:08:09;8.80;99.90
58517;DHT22;44308;50.810;0.284;2023-02-20T05:10:35;8.80;99.90
58517;DHT22;44308;50.810;0.284;2023-02-20T05:13:01;8.70;99.90
58517;DHT22;44308;50.810;0.284;2023-02-20T05:15:28;8.70;99.90
58517;DHT22;44308;50.810;0.284;2023-02-20T05:17:55;8.70;99.90
58517;DHT22;44308;50.810;0.284;2023-02-20T05:20:21;8.70;99.90
58517;DHT22;44308;50.810;0.284;2023-02-20T05:23:07;8.70;99.90
58517;DHT22;44308;50.810;0.284;2023-02-20T05:25:33;8.70;99.90
58517;DHT22;44308;50.810;0.284;2023-02-20T05:27:59;8.70;99.90
58517;DHT22;44308;50.810;0.284;2023-02-20T05:30:24;8.60;99.90
58517;DHT22;44308;50.810;0.284;2023-02-20T05:32:50;8.60;99.90
58517;DHT22;44308;50.810;0.284;2023-02-20T05:35:16;8.70;99.90
58517;DHT22;44308;50.810;0.284;2023-02-20T05:37:41;8.60;99.90
58517;DHT22;44308;50.810;0.284;2023-02-20T05:40:07;8.70;99.90
58517;DHT22;44308;50.810;0.284;2023-02-20T05:42:33;8.70;99.90
58517;DHT22;44308;50.810;0.284;2023-02-20T05:44:58;8.70;99.90
58517;DHT22;44308;50.810;0.284;2023-02-20T05:47:26;8.70;99.90
58517;DHT22;44308;50.810;0.284;2023-02-20T05:49:52;8.60;99.90
58517;DHT22;44308;50.810;0.284;2023-02-20T05:52:17;8.60;99.90
58517;DHT22;44308;50.810;0.284;2023-02-20T05:54:45;8.60;99.90
58517;DHT22;44308;50.810;0.284;2023-02-20T05:57:12;8.60;99.90
58517;DHT22;44308;50.810;0.284;2023-02-20T05:59:38;8.60;99.90
58517;DHT22;44308;50.810;0.284;2023-02-20T06:02:04;8.60;99.90
58517;DHT22;44308;50.810;0.284;2023-02-20T06:04:30;8.60;99.90
58517;DHT22;44308;50.810;0.284;2023-02-20T06:06:55;8.60;99.90
58517;DHT22;44308;50.810;0.284;2023-02-20T06:09:21;8.50;99.90
58517;DHT22;44308;50.810;0.284;2023-02-20T06:11:49;8.60;99.90
58517;DHT22;44308;50.810;0.284;2023-02-20T06:14:16;8.60;99.90
58517;DHT22;44308;50.810;0.284;2023-02-20T06:16:46;8.60;99.90
58517;DHT22;44308;50.810;0.284;2023-02-20T06:19:18;8.60;99.90
58517;DHT22;44308;50.810;0.284;2023-02-20T06:21:45;8.50;99.90
58517;DHT22;44308;50.810;0.284;2023-02-20T06:24:11;8.50;99.90
58517;DHT22;44308;50.810;0.284;2023-02-20T06:26:39;8.50;99.90
58517;DHT22;44308;50.810;0.284;2023-02-20T06:29:05;8.50;99.90
58517;DHT22;44308;50.810;0.284;2023-02-20T06:31:31;8.50;99.90
58517;DHT22;44308;50.810;0.284;2023-02-20T06:33:57;8.50;99.90
58517;DHT22;44308;50.810;0.284;2023-02-20T06:36:29;8.50;99.90
58517;DHT22;44308;50.810;0.284;2023-02-20T06:38:55;8.50;99.90
58517;DHT22;44308;50.810;0.284;2023-02-20T06:41:20;8.50;99.90
58517;DHT22;44308;50.810;0.284;2023-02-20T06:43:46;8.50;99.90
58517;DHT22;44308;50.810;0.284;2023-02-20T06:46:12;8.50;99.90
58517;DHT22;44308;50.810;0.284;2023-02-20T06:48:49;8.50;99.90
58517;DHT22;44308;50.810;0.284;2023-02-20T06:51:21;8.50;99.90
58517;DHT22;44308;50.810;0.284;2023-02-20T06:53:46;8.50;99.90
58517;DHT22;44308;50.810;0.284;2023-02-20T06:56:19;8.50;99.90
58517;DHT22;44308;50.810;0.284;2023-02-20T06:58:46;8.50;99.90
58517;DHT22;44308;50.810;0.284;2023-02-20T07:01:12;8.40;99.90
58517;DHT22;44308;50.810;0.284;2023-02-20T07:03:38;8.40;99.90
58517;DHT22;44308;50.810;0.284;2023-02-20T07:06:04;8.40;99.90
58517;DHT22;44308;50.810;0.284;2023-02-20T07:08:29;8.40;99.90
58517;DHT22;44308;50.810;0.284;2023-02-20T07:10:55;8.40;99.90
58517;DHT22;44308;50.810;0.284;2023-02-20T07:13:21;8.40;99.90
58517;DHT22;44308;50.810;0.284;2023-02-20T07:15:48;8.40;99.90
58517;DHT22;44308;50.810;0.284;2023-02-20T07:18:14;8.50;99.90
58517;DHT22;44308;50.810;0.284;2023-02-20T07:20:42;8.50;99.90
58517;DHT22;44308;50.810;0.284;2023-02-20T07:23:07;8.50;99.90
58517;DHT22;44308;50.810;0.284;2023-02-20T07:25:33;8.40;99.90
58517;DHT22;44308;50.810;0.284;2023-02-20T07:27:59;8.40;99.90
58517;DHT22;44308;50.810;0.284;2023-02-20T07:30:24;8.40;99.90
58517;DHT22;44308;50.810;0.284;2023-02-20T07:32:50;8.50;99.90
58517;DHT22;44308;50.810;0.284;2023-02-20T07:35:16;8.40;99.90
58517;DHT22;44308;50.810;0.284;2023-02-20T07:37:42;8.40;99.90
58517;DHT22;44308;50.810;0.284;2023-02-20T07:40:08;8.40;99.90
58517;DHT22;44308;50.810;0.284;2023-02-20T07:42:34;8.40;99.90
58517;DHT22;44308;50.810;0.284;2023-02-20T07:44:59;8.40;99.90
58517;DHT22;44308;50.810;0.284;2023-02-20T07:47:25;8.50;99.90
58517;DHT22;44308;50.810;0.284;2023-02-20T07:49:51;8.50;99.90
58517;DHT22;44308;50.810;0.284;2023-02-20T07:52:16;8.60;99.90
58517;DHT22;44308;50.810;0.284;2023-02-20T07:54:42;8.60;99.90
58517;DHT22;44308;50.810;0.284;2023-02-20T07:57:14;8.60;99.90
58517;DHT22;44308;50.810;0.284;2023-02-20T07:59:40;8.60;99.90
58517;DHT22;44308;50.810;0.284;2023-02-20T08:02:06;8.60;99.90
58517;DHT22;44308;50.810;0.284;2023-02-20T08:04:31;8.60;99.90
58517;DHT22;44308;50.810;0.284;2023-02-20T08:06:57;8.70;99.90
58517;DHT22;44308;50.810;0.284;2023-02-20T08:09:23;8.70;99.90
58517;DHT22;44308;50.810;0.284;2023-02-20T08:11:48;8.70;99.90
58517;DHT22;44308;50.810;0.284;2023-02-20T08:14:15;8.70;99.90
58517;DHT22;44308;50.810;0.284;2023-02-20T08:16:43;8.60;99.90
58517;DHT22;44308;50.810;0.284;2023-02-20T08:19:09;8.70;99.90
58517;DHT22;44308;50.810;0.284;2023-02-20T08:21:34;8.70;99.90
58517;DHT22;44308;50.810;0.284;2023-02-20T08:24:00;8.70;99.90
58517;DHT22;44308;50.810;0.284;2023-02-20T08:26:26;8.70;99.90
58517;DHT22;44308;50.810;0.284;2023-02-20T08:28:52;8.80;99.90
58517;DHT22;44308;50.810;0.284;2023-02-20T08:31:19;8.80;99.90
58517;DHT22;44308;50.810;0.284;2023-02-20T08:33:45;8.90;99.90
58517;DHT22;44308;50.810;0.284;2023-02-20T08:36:13;8.90;99.90
58517;DHT22;44308;50.810;0.284;2023-02-20T08:38:40;8.90;99.90
58517;DHT22;44308;50.810;0.284;2023-02-20T08:41:08;8.90;99.90
58517;DHT22;44308;50.810;0.284;2023-02-20T08:43:35;8.90;99.90
58517;DHT22;44308;50.810;0.284;2023-02-20T08:46:02;8.90;99.90
58517;DHT22;44308;50.810;0.284;2023-02-20T08:48:28;8.90;99.90
58517;DHT22;44308;50.810;0.284;2023-02-20T08:50:54;8.90;99.90
58517;DHT22;44308;50.810;0.284;2023-02-20T08:53:20;9.00;99.90
58517;DHT22;44308;50.810;0.284;2023-02-20T08:55:46;9.00;99.90
58517;DHT22;44308;50.810;0.284;2023-02-20T08:58:11;9.00;99.90
58517;DHT22;44308;50.810;0.284;2023-02-20T09:00:37;9.10;99.90
58517;DHT22;44308;50.810;0.284;2023-02-20T09:03:03;9.10;99.90
58517;DHT22;44308;50.810;0.284;2023-02-20T09:05:33;9.20;99.90
58517;DHT22;44308;50.810;0.284;2023-02-20T09:07:59;9.30;99.90
58517;DHT22;44308;50.810;0.284;2023-02-20T09:10:25;9.30;99.90
58517;DHT22;44308;50.810;0.284;2023-02-20T09:12:50;9.20;99.90
58517;DHT22;44308;50.810;0.284;2023-02-20T09:15:16;9.40;99.90
58517;DHT22;44308;50.810;0.284;2023-02-20T09:17:47;9.40;99.90
58517;DHT22;44308;50.810;0.284;2023-02-20T09:20:14;9.50;99.90
58517;DHT22;44308;50.810;0.284;2023-02-20T09:22:40;9.60;99.90
58517;DHT22;44308;50.810;0.284;2023-02-20T09:25:06;9.60;99.90
58517;DHT22;44308;50.810;0.284;2023-02-20T09:27:33;9.60;99.90
58517;DHT22;44308;50.810;0.284;2023-02-20T09:29:59;9.60;99.90
58517;DHT22;44308;50.810;0.284;2023-02-20T09:32:25;9.60;99.90
58517;DHT22;44308;50.810;0.284;2023-02-20T09:34:50;9.70;99.90
58517;DHT22;44308;50.810;0.284;2023-02-20T09:37:16;9.80;99.90
58517;DHT22;44308;50.810;0.284;2023-02-20T09:39:42;9.80;99.90
58517;DHT22;44308;50.810;0.284;2023-02-20T09:45:31;9.80;99.90
58517;DHT22;44308;50.810;0.284;2023-02-20T09:50:50;9.80;99.90
58517;DHT22;44308;50.810;0.284;2023-02-20T09:53:26;9.70;99.90
58517;DHT22;44308;50.810;0.284;2023-02-20T09:55:54;9.70;99.90
58517;DHT22;44308;50.810;0.284;2023-02-20T09:58:22;9.60;99.90
58517;DHT22;44308;50.810;0.284;2023-02-20T10:00:51;9.60;99.90
58517;DHT22;44308;50.810;0.284;2023-02-20T10:03:29;9.50;99.90
58517;DHT22;44308;50.810;0.284;2023-02-20T10:06:00;9.60;99.90
58517;DHT22;44308;50.810;0.284;2023-02-20T10:08:28;9.50;99.90
58517;DHT22;44308;50.810;0.284;2023-02-20T10:10:56;9.50;99.90
58517;DHT22;44308;50.810;0.284;2023-02-20T10:13:50;9.50;99.90
58517;DHT22;44308;50.810;0.284;2023-02-20T10:22:34;9.70;99.90
58517;DHT22;44308;50.810;0.284;2023-02-20T10:25:11;9.70;99.90
58517;DHT22;44308;50.810;0.284;2023-02-20T10:27:53;9.70;99.90
58517;DHT22;44308;50.810;0.284;2023-02-20T10:35:49;9.90;99.90
58517;DHT22;44308;50.810;0.284;2023-02-20T10:38:23;9.80;99.90
58517;DHT22;44308;50.810;0.284;2023-02-20T10:43:53;9.80;99.90
58517;DHT22;44308;50.810;0.284;2023-02-20T10:49:19;9.90;99.90
58517;DHT22;44308;50.810;0.284;2023-02-20T10:51:49;9.80;99.90
58517;DHT22;44308;50.810;0.284;2023-02-20T10:54:24;9.90;99.90
58517;DHT22;44308;50.810;0.284;2023-02-20T10:57:03;9.90;99.90
58517;DHT22;44308;50.810;0.284;2023-02-20T10:59:37;9.80;99.90
58517;DHT22;44308;50.810;0.284;2023-02-20T11:02:11;10.00;99.90
58517;DHT22;44308;50.810;0.284;2023-02-20T11:04:40;10.10;99.90
58517;DHT22;44308;50.810;0.284;2023-02-20T11:07:14;10.20;99.90
58517;DHT22;44308;50.810;0.284;2023-02-20T11:09:41;10.20;99.90
58517;DHT22;44308;50.810;0.284;2023-02-20T11:12:07;10.30;99.90
58517;DHT22;44308;50.810;0.284;2023-02-20T11:14:45;10.30;99.90
58517;DHT22;44308;50.810;0.284;2023-02-20T11:17:21;10.40;99.90
58517;DHT22;44308;50.810;0.284;2023-02-20T11:19:55;10.30;99.90
58517;DHT22;44308;50.810;0.284;2023-02-20T11:22:40;10.30;99.90
58517;DHT22;44308;50.810;0.284;2023-02-20T11:25:27;10.40;99.90
58517;DHT22;44308;50.810;0.284;2023-02-20T11:30:44;10.20;99.90
58517;DHT22;44308;50.810;0.284;2023-02-20T11:33:22;10.20;99.90
58517;DHT22;44308;50.810;0.284;2023-02-20T11:36:19;10.20;99.90
58517;DHT22;44308;50.810;0.284;2023-02-20T11:38:48;10.20;99.90
58517;DHT22;44308;50.810;0.284;2023-02-20T11:41:35;10.20;99.90
58517;DHT22;44308;50.810;0.284;2023-02-20T11:46:34;10.10;99.90
58517;DHT22;44308;50.810;0.284;2023-02-20T11:51:46;10.10;99.90
58517;DHT22;44308;50.810;0.284;2023-02-20T12:07:27;10.30;99.90
58517;DHT22;44308;50.810;0.284;2023-02-20T12:09:56;10.40;99.90
58517;DHT22;44308;50.810;0.284;2023-02-20T12:12:25;10.40;99.90
58517;DHT22;44308;50.810;0.284;2023-02-20T12:14:53;10.40;99.90
58517;DHT22;44308;50.810;0.284;2023-02-20T12:17:30;10.50;99.90
58517;DHT22;44308;50.810;0.284;2023-02-20T12:20:15;10.40;99.90
58517;DHT22;44308;50.810;0.284;2023-02-20T12:22:44;10.50;99.90
58517;DHT22;44308;50.810;0.284;2023-02-20T12:41:47;10.60;99.90
58517;DHT22;44308;50.810;0.284;2023-02-20T12:47:26;10.60;99.90
58517;DHT22;44308;50.810;0.284;2023-02-20T12:52:44;10.60;99.90
58517;DHT22;44308;50.810;0.284;2023-02-20T12:55:21;10.60;99.90
58517;DHT22;44308;50.810;0.284;2023-02-20T13:03:38;10.70;99.90
58517;DHT22;44308;50.810;0.284;2023-02-20T13:06:06;10.70;99.90
58517;DHT22;44308;50.810;0.284;2023-02-20T13:08:49;10.80;99.90
58517;DHT22;44308;50.810;0.284;2023-02-20T13:11:20;10.80;99.90
58517;DHT22;44308;50.810;0.284;2023-02-20T13:13:57;10.70;99.90
58517;DHT22;44308;50.810;0.284;2023-02-20T13:16:58;10.70;99.90
58517;DHT22;44308;50.810;0.284;2023-02-20T13:19:36;10.70;99.90
58517;DHT22;44308;50.810;0.284;2023-02-20T13:22:03;10.60;99.90
58517;DHT22;44308;50.810;0.284;2023-02-20T13:24:33;10.60;99.90
58517;DHT22;44308;50.810;0.284;2023-02-20T13:27:04;10.60;99.90
58517;DHT22;44308;50.810;0.284;2023-02-20T13:29:36;10.60;99.90
58517;DHT22;44308;50.810;0.284;2023-02-20T13:34:43;10.60;99.90
58517;DHT22;44308;50.810;0.284;2023-02-20T13:37:53;10.60;99.90
58517;DHT22;44308;50.810;0.284;2023-02-20T13:45:44;10.50;99.90
58517;DHT22;44308;50.810;0.284;2023-02-20T13:48:37;10.50;99.90
58517;DHT22;44308;50.810;0.284;2023-02-20T13:56:30;10.70;99.90
58517;DHT22;44308;50.810;0.284;2023-02-20T13:59:13;10.70;99.90
58517;DHT22;44308;50.810;0.284;2023-02-20T14:02:00;10.70;99.90
58517;DHT22;44308;50.810;0.284;2023-02-20T14:04:26;10.60;99.90
58517;DHT22;44308;50.810;0.284;2023-02-20T14:06:54;10.60;99.90
58517;DHT22;44308;50.810;0.284;2023-02-20T14:09:23;10.50;99.90
58517;DHT22;44308;50.810;0.284;2023-02-20T14:11:53;10.50;99.90
58517;DHT22;44308;50.810;0.284;2023-02-20T14:14:30;10.50;99.90
58517;DHT22;44308;50.810;0.284;2023-02-20T14:17:18;10.60;99.90
58517;DHT22;44308;50.810;0.284;2023-02-20T14:19:48;10.60;99.90
58517;DHT22;44308;50.810;0.284;2023-02-20T14:22:24;10.50;99.90
58517;DHT22;44308;50.810;0.284;2023-02-20T14:27:34;10.40;99.90
58517;DHT22;44308;50.810;0.284;2023-02-20T14:30:12;10.30;99.90
58517;DHT22;44308;50.810;0.284;2023-02-20T14:32:45;10.20;99.90
58517;DHT22;44308;50.810;0.284;2023-02-20T14:40:51;10.20;99.90
58517;DHT22;44308;50.810;0.284;2023-02-20T14:43:22;10.20;99.90
58517;DHT22;44308;50.810;0.284;2023-02-20T14:46:04;10.20;99.90
58517;DHT22;44308;50.810;0.284;2023-02-20T14:48:35;10.20;99.90
58517;DHT22;44308;50.810;0.284;2023-02-20T14:51:24;10.10;99.90
58517;DHT22;44308;50.810;0.284;2023-02-20T14:53:58;10.10;99.90
58517;DHT22;44308;50.810;0.284;2023-02-20T14:56:24;10.00;99.90
58517;DHT22;44308;50.810;0.284;2023-02-20T14:58:51;10.00;99.90
58517;DHT22;44308;50.810;0.284;2023-02-20T15:04:13;10.00;99.90
58517;DHT22;44308;50.810;0.284;2023-02-20T15:06:41;10.10;99.90
58517;DHT22;44308;50.810;0.284;2023-02-20T15:09:08;10.00;99.90
58517;DHT22;44308;50.810;0.284;2023-02-20T15:11:35;10.00;99.90
58517;DHT22;44308;50.810;0.284;2023-02-20T15:14:01;10.00;99.90
58517;DHT22;44308;50.810;0.284;2023-02-20T15:16:29;10.10;99.90
58517;DHT22;44308;50.810;0.284;2023-02-20T15:18:56;10.00;99.90
58517;DHT22;44308;50.810;0.284;2023-02-20T15:24:38;10.00;99.90
58517;DHT22;44308;50.810;0.284;2023-02-20T15:27:17;10.00;99.90
58517;DHT22;44308;50.810;0.284;2023-02-20T15:29:45;10.00;99.90
58517;DHT22;44308;50.810;0.284;2023-02-20T15:34:43;9.90;99.90
58517;DHT22;44308;50.810;0.284;2023-02-20T15:37:24;9.90;99.90
58517;DHT22;44308;50.810;0.284;2023-02-20T15:39:51;9.90;99.90
58517;DHT22;44308;50.810;0.284;2023-02-20T15:42:19;9.90;99.90
58517;DHT22;44308;50.810;0.284;2023-02-20T15:44:46;9.90;99.90
58517;DHT22;44308;50.810;0.284;2023-02-20T15:47:12;9.90;99.90
58517;DHT22;44308;50.810;0.284;2023-02-20T15:49:38;10.00;99.90
58517;DHT22;44308;50.810;0.284;2023-02-20T15:52:09;10.00;99.90
58517;DHT22;44308;50.810;0.284;2023-02-20T15:54:37;10.10;99.90
58517;DHT22;44308;50.810;0.284;2023-02-20T15:57:12;10.00;99.90
58517;DHT22;44308;50.810;0.284;2023-02-20T15:59:38;10.10;99.90
58517;DHT22;44308;50.810;0.284;2023-02-20T16:02:07;10.00;99.90
58517;DHT22;44308;50.810;0.284;2023-02-20T16:04:34;10.00;99.90
58517;DHT22;44308;50.810;0.284;2023-02-20T16:06:59;10.00;99.90
58517;DHT22;44308;50.810;0.284;2023-02-20T16:09:25;10.00;99.90
58517;DHT22;44308;50.810;0.284;2023-02-20T16:11:51;10.00;99.90
58517;DHT22;44308;50.810;0.284;2023-02-20T16:14:16;10.10;99.90
58517;DHT22;44308;50.810;0.284;2023-02-20T16:16:47;10.10;99.90
58517;DHT22;44308;50.810;0.284;2023-02-20T16:19:18;9.90;99.90
58517;DHT22;44308;50.810;0.284;2023-02-20T16:21:45;9.80;99.90
58517;DHT22;44308;50.810;0.284;2023-02-20T16:24:12;9.80;99.90
58517;DHT22;44308;50.810;0.284;2023-02-20T16:26:41;9.70;99.90
58517;DHT22;44308;50.810;0.284;2023-02-20T16:29:14;9.60;99.90
58517;DHT22;44308;50.810;0.284;2023-02-20T16:34:23;9.40;99.90
58517;DHT22;44308;50.810;0.284;2023-02-20T16:36:50;9.40;99.90
58517;DHT22;44308;50.810;0.284;2023-02-20T16:39:16;9.40;99.90
58517;DHT22;44308;50.810;0.284;2023-02-20T16:41:42;9.50;99.90
58517;DHT22;44308;50.810;0.284;2023-02-20T16:44:20;9.40;99.90
58517;DHT22;44308;50.810;0.284;2023-02-20T16:46:47;9.40;99.90
58517;DHT22;44308;50.810;0.284;2023-02-20T16:49:13;9.40;99.90
58517;DHT22;44308;50.810;0.284;2023-02-20T16:51:40;9.40;99.90
58517;DHT22;44308;50.810;0.284;2023-02-20T16:54:13;9.40;99.90
58517;DHT22;44308;50.810;0.284;2023-02-20T16:56:39;9.40;99.90
58517;DHT22;44308;50.810;0.284;2023-02-20T16:59:11;9.30;99.90
58517;DHT22;44308;50.810;0.284;2023-02-20T17:01:40;9.30;99.90
58517;DHT22;44308;50.810;0.284;2023-02-20T17:04:09;9.30;99.90
58517;DHT22;44308;50.810;0.284;2023-02-20T17:06:39;9.30;99.90
58517;DHT22;44308;50.810;0.284;2023-02-20T17:09:05;9.30;99.90
58517;DHT22;44308;50.810;0.284;2023-02-20T17:11:31;9.20;99.90
58517;DHT22;44308;50.810;0.284;2023-02-20T17:13:57;9.30;99.90
58517;DHT22;44308;50.810;0.284;2023-02-20T17:16:22;9.30;99.90
58517;DHT22;44308;50.810;0.284;2023-02-20T17:18:51;9.20;99.90
58517;DHT22;44308;50.810;0.284;2023-02-20T17:21:19;9.20;99.90
58517;DHT22;44308;50.810;0.284;2023-02-20T17:23:48;9.20;99.90
58517;DHT22;44308;50.810;0.284;2023-02-20T17:26:16;9.20;99.90
58517;DHT22;44308;50.810;0.284;2023-02-20T17:28:42;9.20;99.90
58517;DHT22;44308;50.810;0.284;2023-02-20T17:31:08;9.20;99.90
58517;DHT22;44308;50.810;0.284;2023-02-20T17:33:36;9.30;99.90
58517;DHT22;44308;50.810;0.284;2023-02-20T17:36:05;9.30;99.90
58517;DHT22;44308;50.810;0.284;2023-02-20T17:38:31;9.30;99.90
58517;DHT22;44308;50.810;0.284;2023-02-20T17:41:00;9.30;99.90
58517;DHT22;44308;50.810;0.284;2023-02-20T17:43:26;9.30;99.90
58517;DHT22;44308;50.810;0.284;2023-02-20T17:45:56;9.20;99.90
58517;DHT22;44308;50.810;0.284;2023-02-20T17:48:22;9.20;99.90
58517;DHT22;44308;50.810;0.284;2023-02-20T17:50:53;9.30;99.90
58517;DHT22;44308;50.810;0.284;2023-02-20T17:53:19;9.30;99.90
58517;DHT22;44308;50.810;0.284;2023-02-20T17:55:45;9.30;99.90
58517;DHT22;44308;50.810;0.284;2023-02-20T17:58:13;9.30;99.90
58517;DHT22;44308;50.810;0.284;2023-02-20T18:00:41;9.30;99.90
58517;DHT22;44308;50.810;0.284;2023-02-20T18:03:07;9.30;99.90
58517;DHT22;44308;50.810;0.284;2023-02-20T18:05:33;9.30;99.90
58517;DHT22;44308;50.810;0.284;2023-02-20T18:07:59;9.30;99.90
58517;DHT22;44308;50.810;0.284;2023-02-20T18:10:25;9.30;99.90
58517;DHT22;44308;50.810;0.284;2023-02-20T18:12:51;9.30;99.90